Terminal Aerodrome Forecast
Issued by NWS

Home | Current Version | Previous Version | Text Only | Print | Product List | Glossary On
Versions: 1 2 3 4 5 6 7 8 9 10 11 12 13 14 15 16 17 18 19 20
000
FTUS41 KRLX 312322
TAFCKB
TAF
KCKB 312322Z 0100/0124 00000KT P6SM VCTS SCT045CB
     FM010100 00000KT P6SM SCT045
     FM010400 00000KT 4SM BR SCT045
     FM010600 00000KT 1SM BR SCT003
     FM010800 00000KT 1/4SM FG VV001
     FM011200 00000KT 3SM BR SCT001
     FM011300 VRB04KT P6SM SCT045=

USA.gov is the U.S. government's official web portal to all federal, state and local government web resources and services.